createdAt,value
2022-09-22T00:09:32.703Z,100.00
2022-09-22T00:19:38.368Z,100.00
2022-09-22T00:29:42.575Z,100.00
2022-09-22T00:39:52.665Z,100.00
2022-09-22T00:50:14.646Z,100.00
2022-09-22T01:00:20.291Z,100.00
2022-09-22T01:10:24.226Z,100.00
2022-09-22T01:21:04.183Z,100.00
2022-09-22T01:31:16.082Z,100.00
2022-09-22T01:41:36.015Z,100.00
2022-09-22T01:51:45.913Z,100.00
2022-09-22T02:02:04.007Z,100.00
2022-09-22T02:12:06.010Z,100.00
2022-09-22T02:22:09.338Z,100.00
2022-09-22T02:32:16.186Z,100.00
2022-09-22T02:42:25.845Z,100.00
2022-09-22T02:52:28.975Z,100.00
2022-09-22T03:02:33.361Z,100.00
2022-09-22T03:12:36.056Z,100.00
2022-09-22T03:22:41.673Z,100.00
2022-09-22T03:32:43.324Z,100.00
2022-09-22T03:42:44.992Z,100.00
2022-09-22T03:52:47.061Z,100.00
2022-09-22T04:02:48.748Z,100.00
2022-09-22T04:12:50.433Z,100.00
2022-09-22T04:22:52.139Z,100.00
2022-09-22T04:32:55.159Z,100.00
2022-09-22T04:42:57.885Z,100.00
2022-09-22T04:52:59.737Z,100.00
2022-09-22T05:03:03.484Z,100.00
2022-09-22T05:13:07.199Z,100.00
2022-09-22T05:23:11.189Z,100.00
2022-09-22T05:33:13.948Z,100.00
2022-09-22T05:43:16.728Z,100.00
2022-09-22T05:53:18.308Z,100.00
2022-09-22T06:03:19.884Z,100.00
2022-09-22T06:13:21.765Z,100.00
2022-09-22T06:23:26.012Z,100.00
2022-09-22T06:33:30.400Z,100.00
2022-09-22T06:43:37.973Z,100.00
2022-09-22T06:53:39.805Z,100.00
2022-09-22T07:03:45.730Z,100.00
2022-09-22T07:13:53.485Z,100.00
2022-09-22T07:23:56.465Z,100.00
2022-09-22T07:34:01.389Z,100.00
2022-09-22T07:44:22.369Z,86.65
2022-09-22T07:54:25.609Z,74.01
2022-09-22T08:04:31.139Z,65.31
2022-09-22T08:14:33.877Z,65.90
2022-09-22T08:24:37.327Z,66.03
2022-09-22T08:34:44.614Z,60.40
2022-09-22T08:45:09.526Z,54.82
2022-09-22T08:55:22.507Z,51.71
2022-09-22T09:05:50.074Z,48.74
2022-09-22T09:16:06.975Z,48.35
2022-09-22T09:26:08.642Z,45.82
2022-09-22T09:36:17.668Z,42.38
2022-09-22T09:46:26.709Z,43.64
2022-09-22T09:56:30.189Z,42.71
2022-09-22T10:06:32.061Z,45.42
2022-09-22T10:16:36.246Z,46.45
2022-09-22T10:26:52.105Z,41.18
2022-09-22T10:36:54.625Z,36.42
2022-09-22T10:47:27.247Z,31.96
2022-09-22T10:57:56.267Z,31.66
2022-09-22T11:08:26.710Z,29.98
2022-09-22T11:18:58.557Z,27.83
2022-09-22T11:29:10.810Z,36.18
2022-09-22T11:39:26.435Z,41.67
2022-09-22T11:49:46.628Z,27.69
2022-09-22T12:00:08.484Z,40.13
2022-09-22T12:10:23.034Z,56.61
2022-09-22T12:20:45.079Z,45.29
2022-09-22T12:31:00.966Z,58.91
2022-09-22T12:41:08.252Z,52.37
2022-09-22T12:51:31.402Z,70.36
2022-09-22T13:01:34.810Z,72.73
2022-09-22T13:12:12.079Z,45.42
2022-09-22T13:22:20.700Z,35.31
2022-09-22T13:32:27.091Z,31.42
2022-09-22T13:42:34.237Z,29.81
2022-09-22T13:52:39.791Z,29.11
2022-09-22T14:02:44.525Z,25.19
2022-09-22T14:12:48.840Z,22.62
2022-09-22T14:22:50.556Z,23.11
2022-09-22T14:32:57.036Z,23.47
2022-09-22T14:43:09.662Z,25.69
2022-09-22T14:53:22.991Z,32.33
2022-09-22T15:03:29.619Z,47.36
2022-09-22T15:13:39.261Z,51.79
2022-09-22T15:23:45.088Z,59.81
2022-09-22T15:33:49.400Z,60.31
2022-09-22T15:43:52.613Z,51.77
2022-09-22T15:53:56.880Z,59.35
2022-09-22T16:04:00.428Z,61.28
2022-09-22T16:14:06.083Z,63.19
2022-09-22T16:24:10.229Z,66.25
2022-09-22T16:34:19.113Z,66.37
2022-09-22T16:44:22.103Z,70.89
2022-09-22T16:54:24.815Z,82.58
2022-09-22T17:04:33.049Z,87.86
2022-09-22T17:14:37.085Z,95.27
2022-09-22T17:24:40.762Z,100.00
2022-09-22T17:34:42.451Z,100.00
2022-09-22T17:44:44.388Z,100.00
2022-09-22T17:55:04.587Z,100.00
2022-09-22T18:05:09.216Z,100.00
2022-09-22T18:15:13.438Z,100.00
2022-09-22T18:25:16.773Z,100.00
2022-09-22T18:35:18.619Z,100.00
2022-09-22T18:45:20.539Z,100.00
2022-09-22T18:55:22.802Z,100.00
2022-09-22T19:05:27.682Z,100.00
2022-09-22T19:15:29.462Z,100.00
2022-09-22T19:25:32.644Z,100.00
2022-09-22T19:35:39.192Z,100.00
2022-09-22T19:45:41.293Z,100.00
2022-09-22T19:55:50.787Z,100.00
2022-09-22T20:05:52.946Z,100.00
2022-09-22T20:15:54.852Z,100.00
2022-09-22T20:26:03.835Z,100.00
2022-09-22T20:36:06.206Z,100.00
2022-09-22T20:46:09.446Z,100.00
2022-09-22T20:56:12.061Z,100.00
2022-09-22T21:06:17.045Z,100.00
2022-09-22T21:16:18.835Z,100.00
2022-09-22T21:26:20.953Z,100.00
2022-09-22T21:36:24.339Z,100.00
2022-09-22T21:46:29.633Z,100.00
2022-09-22T21:56:33.830Z,100.00
2022-09-22T22:06:43.138Z,100.00
2022-09-22T22:16:49.924Z,100.00
2022-09-22T22:26:54.806Z,100.00
2022-09-22T22:37:01.178Z,100.00
2022-09-22T22:47:05.443Z,100.00
2022-09-22T22:57:07.129Z,100.00
2022-09-22T23:07:08.801Z,100.00
2022-09-22T23:17:10.947Z,100.00
2022-09-22T23:27:21.892Z,100.00
2022-09-22T23:37:25.036Z,100.00
2022-09-22T23:47:28.959Z,100.00
2022-09-22T23:57:30.700Z,100.00
